createdAt,value
2023-07-05T03:21:40.767Z,100155.91
2023-07-05T03:37:56.435Z,100143.84
2023-07-05T03:46:57.806Z,100153.13
2023-07-05T03:48:19.038Z,100150.72
2023-07-05T05:02:39.495Z,100157.69
2023-07-05T05:06:46.165Z,100174.66
2023-07-05T05:11:02.740Z,100165.38
2023-07-05T05:13:37.769Z,100170.47
2023-07-05T05:20:50.031Z,100164.69
2023-07-05T05:24:00.651Z,100169.47
2023-07-05T05:40:35.570Z,100155.16
2023-07-05T05:41:38.599Z,100160.94
2023-07-05T05:46:52.161Z,100177.41
2023-07-05T05:47:56.738Z,100166.41
2023-07-05T05:48:58.981Z,100171.47
2023-07-05T05:50:01.319Z,100172.53
2023-07-05T05:51:06.391Z,100176.28
2023-07-05T05:52:08.899Z,100165.88
2023-07-05T05:53:12.685Z,100173.19
2023-07-05T06:12:48.363Z,100166.91
2023-07-05T06:13:50.776Z,100170.31
2023-07-05T06:14:52.678Z,100170.63
2023-07-05T06:16:11.507Z,100167.72
2023-07-05T06:17:14.623Z,100168.59
2023-07-05T06:18:18.194Z,100166.31
2023-07-05T06:19:20.275Z,100175.72
2023-07-05T06:20:24.774Z,100174.34
2023-07-05T06:21:27.476Z,100165.72
2023-07-05T06:22:30.901Z,100162.78
2023-07-05T06:24:51.617Z,100173.19
2023-07-05T06:25:58.497Z,100171.38
2023-07-05T06:27:01.330Z,100169.56
2023-07-05T06:28:03.616Z,100163.75
2023-07-05T06:29:05.580Z,100169.22
2023-07-05T06:30:07.907Z,100165.53
2023-07-05T06:31:12.567Z,100163.81
2023-07-05T06:32:15.368Z,100164.41
2023-07-05T06:33:17.669Z,100160.22
2023-07-05T06:34:19.819Z,100159.91
2023-07-05T06:35:22.708Z,100162.22
2023-07-05T06:36:24.922Z,100161.34
2023-07-05T06:37:36.014Z,100162.00
2023-07-05T06:38:39.384Z,100165.88
2023-07-05T06:39:43.337Z,100166.75
2023-07-05T06:40:52.696Z,100158.25
2023-07-05T06:41:55.250Z,100162.47
2023-07-05T06:43:08.175Z,100166.56
2023-07-05T06:44:11.384Z,100170.03
2023-07-05T06:45:13.523Z,100169.53
2023-07-05T06:46:16.063Z,100167.19
2023-07-05T06:47:18.289Z,100165.31
2023-07-05T06:48:21.052Z,100166.94
2023-07-05T06:49:24.845Z,100161.28
2023-07-05T06:50:29.810Z,100160.78
2023-07-05T06:51:32.310Z,100163.41
2023-07-05T06:52:38.128Z,100156.84
2023-07-05T06:53:48.700Z,100158.31
2023-07-05T06:54:54.048Z,100155.47
2023-07-05T06:55:57.328Z,100155.22
2023-07-05T06:57:01.598Z,100157.53
2023-07-05T06:58:06.945Z,100158.31
2023-07-05T06:59:09.196Z,100156.03
2023-07-05T07:00:12.172Z,100155.81
2023-07-05T07:01:15.587Z,100153.66
2023-07-05T07:02:18.017Z,100147.38
2023-07-05T07:03:20.870Z,100144.53
2023-07-05T07:04:23.420Z,100140.78
2023-07-05T07:05:26.492Z,100143.25
2023-07-05T07:06:28.464Z,100147.91
2023-07-05T07:07:31.016Z,100144.03
2023-07-05T07:08:59.628Z,100151.47
2023-07-05T07:10:02.492Z,100152.47
2023-07-05T07:11:07.172Z,100146.22
2023-07-05T07:12:10.676Z,100148.84
2023-07-05T07:13:13.241Z,100156.78
2023-07-05T07:14:15.468Z,100145.53
2023-07-05T07:15:18.611Z,100158.09
2023-07-05T07:16:20.552Z,100144.16
2023-07-05T07:17:23.100Z,100160.75
2023-07-05T07:18:25.688Z,100157.25
2023-07-05T07:19:30.830Z,100150.84
2023-07-05T07:20:38.741Z,100150.03
2023-07-05T07:21:41.856Z,100156.22
2023-07-05T07:22:47.714Z,100151.03
2023-07-05T07:23:50.382Z,100152.56
2023-07-05T07:24:55.682Z,100158.69
2023-07-05T07:26:03.845Z,100156.97
2023-07-05T07:27:08.955Z,100149.53
2023-07-05T07:28:13.784Z,100153.66
2023-07-05T07:29:19.987Z,100158.91
2023-07-05T07:30:23.155Z,100158.00
2023-07-05T07:31:26.965Z,100163.13
2023-07-05T07:32:32.266Z,100158.13
2023-07-05T07:33:36.625Z,100152.72
2023-07-05T07:34:39.254Z,100149.50
2023-07-05T07:35:45.524Z,100155.16
2023-07-05T07:36:49.346Z,100154.69
2023-07-05T07:37:51.370Z,100150.56
2023-07-05T07:38:56.312Z,100146.34
2023-07-05T07:39:58.499Z,100148.72
2023-07-05T07:41:04.585Z,100149.03
2023-07-05T07:42:06.775Z,100148.75
2023-07-05T07:43:09.410Z,100152.13
2023-07-05T07:44:12.303Z,100148.19
2023-07-05T07:45:16.045Z,100144.31
2023-07-05T07:46:20.679Z,100145.16
2023-07-05T07:47:23.332Z,100152.63
2023-07-05T07:48:29.792Z,100146.13
2023-07-05T07:49:33.774Z,100143.41
2023-07-05T07:50:35.986Z,100140.72
2023-07-05T07:51:40.076Z,100151.75
2023-07-05T07:52:47.426Z,100139.47
2023-07-05T07:53:55.885Z,100141.69
2023-07-05T07:54:58.329Z,100139.06
2023-07-05T07:56:02.585Z,100143.81
2023-07-05T07:57:08.757Z,100146.28
2023-07-05T07:58:13.541Z,100146.81
2023-07-05T07:59:16.430Z,100149.69
2023-07-05T08:00:25.273Z,100146.41
2023-07-05T08:01:31.997Z,100140.38
2023-07-05T08:02:34.273Z,100132.91
2023-07-05T08:03:36.735Z,100139.63
2023-07-05T08:04:45.168Z,100139.63
2023-07-05T08:05:59.442Z,100146.94
2023-07-05T08:07:02.980Z,100136.00
2023-07-05T08:08:07.850Z,100142.50
2023-07-05T08:09:11.585Z,100131.81
2023-07-05T08:10:14.504Z,100140.41
2023-07-05T08:11:19.927Z,100145.06
2023-07-05T08:12:23.205Z,100137.81
2023-07-05T08:13:37.209Z,100133.88
2023-07-05T08:14:43.834Z,100133.28
2023-07-05T08:15:51.938Z,100136.22
2023-07-05T08:16:58.771Z,100133.34
2023-07-05T08:18:05.222Z,100139.63
2023-07-05T08:19:11.138Z,100142.25
2023-07-05T08:20:23.278Z,100144.84
2023-07-05T08:21:27.274Z,100139.09
2023-07-05T08:22:30.127Z,100145.59
2023-07-05T08:26:35.192Z,100158.38
2023-07-05T08:27:38.016Z,100154.19
2023-07-05T08:28:43.640Z,100157.03
2023-07-05T08:29:53.677Z,100155.16
2023-07-05T08:30:59.099Z,100151.66
2023-07-05T08:32:01.635Z,100156.13
2023-07-05T08:33:04.509Z,100151.19
2023-07-05T08:34:06.575Z,100151.41
2023-07-05T08:35:11.318Z,100153.34
2023-07-05T08:36:16.107Z,100146.91
2023-07-05T08:38:34.109Z,100155.00
2023-07-05T08:39:36.327Z,100156.53
2023-07-05T08:40:41.413Z,100163.06
2023-07-05T08:41:46.877Z,100163.31
2023-07-05T08:43:06.144Z,100160.44
2023-07-05T08:44:29.906Z,100165.13
2023-07-05T08:45:35.411Z,100160.81
2023-07-05T08:46:39.598Z,100154.13
2023-07-05T08:49:23.452Z,100162.47
2023-07-05T08:50:35.782Z,100169.00
2023-07-05T08:51:48.626Z,100156.19
2023-07-05T08:52:56.887Z,100164.03
2023-07-05T08:54:11.492Z,100161.41
2023-07-05T08:55:21.108Z,100165.38
2023-07-05T08:59:12.548Z,100161.94
2023-07-05T09:00:29.315Z,100161.16
2023-07-05T09:01:37.596Z,100153.91
2023-07-05T09:02:40.495Z,100153.69
2023-07-05T09:03:46.768Z,100166.69
2023-07-05T09:04:51.748Z,100160.44
2023-07-05T09:06:05.751Z,100159.38
2023-07-05T09:07:08.705Z,100159.09
2023-07-05T09:08:41.474Z,100148.66
2023-07-05T09:11:13.535Z,100158.78
2023-07-05T09:26:31.320Z,100163.72
2023-07-05T09:29:19.539Z,100160.59
2023-07-05T09:32:10.611Z,100167.09
2023-07-05T09:35:03.472Z,100158.09
2023-07-05T09:36:21.954Z,100155.50
2023-07-05T09:37:29.984Z,100154.72
2023-07-05T09:39:03.681Z,100154.69
2023-07-05T09:40:25.524Z,100158.38
2023-07-05T09:42:02.285Z,100156.81
2023-07-05T09:44:33.172Z,100153.97
2023-07-05T09:47:02.451Z,100158.63
2023-07-05T09:48:09.349Z,100146.91
2023-07-05T09:50:35.051Z,100146.38
2023-07-05T09:58:27.363Z,100143.16
2023-07-05T09:59:29.945Z,100146.78
2023-07-05T10:00:55.118Z,100148.63
2023-07-05T10:02:22.279Z,100150.72
2023-07-05T10:03:24.729Z,100147.41
2023-07-05T10:04:29.392Z,100152.91
2023-07-05T10:05:37.264Z,100151.59
2023-07-05T10:06:42.852Z,100145.13
2023-07-05T10:08:03.937Z,100141.75
2023-07-05T10:09:44.349Z,100149.78
2023-07-05T10:10:49.098Z,100142.22
2023-07-05T10:12:03.889Z,100143.53
2023-07-05T10:13:36.128Z,100140.09
2023-07-05T10:14:47.644Z,100142.88
2023-07-05T10:15:51.051Z,100147.22
2023-07-05T10:17:15.730Z,100147.56
2023-07-05T10:18:33.150Z,100148.13
2023-07-05T10:19:51.913Z,100144.22
2023-07-05T10:22:26.040Z,100141.97
2023-07-05T10:23:32.721Z,100149.19
2023-07-05T10:24:59.539Z,100147.16
2023-07-05T10:27:42.386Z,100150.66
2023-07-05T10:31:37.415Z,100150.44
2023-07-05T10:34:07.308Z,100145.75
2023-07-05T10:35:21.092Z,100152.66
2023-07-05T10:36:27.746Z,100150.53
2023-07-05T10:38:52.518Z,100154.03
2023-07-05T10:41:22.694Z,100154.88
2023-07-05T10:42:34.896Z,100157.44
2023-07-05T10:43:41.724Z,100152.00
2023-07-05T10:44:46.651Z,100153.22
2023-07-05T10:45:49.864Z,100158.91
2023-07-05T10:46:57.354Z,100151.47
2023-07-05T10:48:03.541Z,100158.53
2023-07-05T10:50:36.469Z,100154.31
2023-07-05T10:51:45.525Z,100164.19
2023-07-05T10:52:52.971Z,100154.94
2023-07-05T10:55:42.694Z,100153.84
2023-07-05T10:58:18.094Z,100165.47
2023-07-05T11:01:03.096Z,100169.22
2023-07-05T11:02:34.227Z,100171.91
2023-07-05T11:03:45.399Z,100171.09
2023-07-05T11:04:51.601Z,100179.88
2023-07-05T11:06:01.688Z,100182.28
2023-07-05T11:07:14.853Z,100179.03
2023-07-05T11:09:44.077Z,100188.22
2023-07-05T11:12:23.638Z,100189.81
2023-07-05T11:13:30.213Z,100179.19
2023-07-05T11:14:37.584Z,100184.00
2023-07-05T11:16:58.439Z,100181.59
2023-07-05T11:18:04.966Z,100186.78
2023-07-05T11:20:35.823Z,100183.72
2023-07-05T11:21:39.189Z,100180.84
2023-07-05T11:22:54.251Z,100185.28
2023-07-05T11:23:59.207Z,100184.13
2023-07-05T11:25:02.288Z,100175.66
2023-07-05T11:26:10.528Z,100178.59
2023-07-05T11:27:28.828Z,100188.28
2023-07-05T11:28:51.155Z,100179.03
2023-07-05T11:29:57.433Z,100187.88
2023-07-05T11:31:01.997Z,100178.78
2023-07-05T11:32:08.243Z,100190.16
2023-07-05T11:33:11.471Z,100186.69
2023-07-05T11:34:23.540Z,100180.22
2023-07-05T11:35:48.877Z,100178.75
2023-07-05T11:36:54.670Z,100184.88
2023-07-05T11:37:59.720Z,100178.59
2023-07-05T11:39:08.576Z,100183.28
2023-07-05T11:40:32.212Z,100190.69
2023-07-05T11:41:40.012Z,100178.28
2023-07-05T11:42:45.764Z,100178.75
2023-07-05T11:44:06.614Z,100183.03
2023-07-05T11:45:22.397Z,100182.13
2023-07-05T11:46:39.679Z,100180.03
2023-07-05T11:49:27.709Z,100174.59
2023-07-05T11:50:31.862Z,100180.69
2023-07-05T11:53:03.185Z,100178.66
2023-07-05T11:54:06.462Z,100183.00
2023-07-05T11:55:27.552Z,100177.72
2023-07-05T13:29:10.933Z,100139.72
2023-07-05T18:17:07.626Z,100198.97
2023-07-05T18:18:19.999Z,100194.25
2023-07-05T18:40:39.459Z,100212.66
2023-07-05T18:41:45.637Z,100212.78
2023-07-05T18:51:45.717Z,100214.03
2023-07-05T18:52:54.415Z,100222.97
2023-07-05T19:11:41.535Z,100242.59
2023-07-05T19:12:43.539Z,100247.13
2023-07-05T19:13:51.012Z,100241.63
2023-07-05T19:15:55.201Z,100249.75
2023-07-05T19:31:31.850Z,100267.78
